»·PEaware :: N7577V KOXR-KSNA

N7577V :: KOXR-KSNA

FLIGHT INFORMATION

Flight Status: Arrived
Operator: Privately registered:
United States
More flights under this callsign
Pilot: Charles H. (27427)
Aircraft: CESSNA 182 SKYLANE
(C182)
More flights by this aircraft type
Origin: KOXR Oxnard
United States
Destination: KSNA John Wayne-Orange Co
United States
More flights between these airports :: More routes between these airports
Route: VTU044 GINNA V326 VNY V186 BAYJY V363 POXKU V8 SLI
File this flight plan on PilotEdge
Remarks: TEC Route VTUP7; request ILS RWY 20R at KSNA
Altitude:
(Current/Filed)
5,000ft
Speed:
(Current/Filed)
130kts
Departed: 26-Dec-20 01:26 PM
Arrived: 26-Dec-20 02:13 PM
Distance/Time
Traveled:
74nm/0:47
Distance/Time
To Go:
Arrived

Flight Plot

Page will automatically refresh every two minutes.


Map Options




Map Legend


Flown Route
Filed Route
Departure Airport
Arrival Airport
Navaid (VOR, NDB)
Fix

Horizontal Profiles

Position Reports

Time Latitude Longitude Heading Altitude Ground
Speed
26-Dec-20 12:15 34.199029 -119.199257 267 43ft 0kts
26-Dec-20 12:16 34.199029 -119.199257 267 43ft 0kts
26-Dec-20 12:17 34.199029 -119.199257 267 43ft 0kts
26-Dec-20 12:18 34.199029 -119.199257 267 43ft 0kts
26-Dec-20 12:19 34.199029 -119.199257 267 43ft 0kts
26-Dec-20 12:20 34.199029 -119.199257 267 43ft 0kts
26-Dec-20 12:21 34.199029 -119.199257 267 43ft 0kts
26-Dec-20 12:22 34.199029 -119.199257 267 43ft 0kts
26-Dec-20 12:23 34.199029 -119.199257 267 43ft 0kts
26-Dec-20 12:24 34.199029 -119.199257 267 43ft 0kts
26-Dec-20 12:25 34.199029 -119.199257 267 43ft 0kts
26-Dec-20 12:26 34.199029 -119.199257 267 43ft 0kts
26-Dec-20 12:27 34.199029 -119.199257 267 43ft 0kts
26-Dec-20 12:28 34.199029 -119.199257 267 43ft 0kts
26-Dec-20 12:29 34.199029 -119.199257 267 43ft 0kts
26-Dec-20 12:30 34.199029 -119.199257 267 43ft 0kts
26-Dec-20 12:31 34.199029 -119.199257 267 43ft 0kts
26-Dec-20 12:32 34.199029 -119.199257 267 43ft 0kts
26-Dec-20 12:33 34.199029 -119.199257 267 43ft 0kts
26-Dec-20 12:34 34.199029 -119.199257 267 43ft 0kts
26-Dec-20 12:35 34.199029 -119.199257 267 43ft 0kts
26-Dec-20 12:36 34.199029 -119.199257 267 43ft 0kts
26-Dec-20 12:37 34.199029 -119.199257 267 43ft 0kts
26-Dec-20 12:38 34.199029 -119.199257 267 43ft 0kts
26-Dec-20 12:39 34.199029 -119.199257 267 43ft 0kts
26-Dec-20 12:40 34.199029 -119.199257 267 43ft 0kts
26-Dec-20 12:41 34.199029 -119.199257 267 43ft 0kts
26-Dec-20 12:42 34.199029 -119.199257 267 43ft 0kts
26-Dec-20 12:43 34.199029 -119.199257 267 43ft 0kts
26-Dec-20 12:44 34.199029 -119.199257 267 43ft 0kts
26-Dec-20 12:45 34.199029 -119.199257 267 43ft 0kts
26-Dec-20 12:46 34.199029 -119.199257 267 43ft 0kts
26-Dec-20 12:47 34.199029 -119.199257 267 43ft 0kts
26-Dec-20 12:48 34.199029 -119.199257 267 43ft 0kts
26-Dec-20 12:49 34.199029 -119.199257 267 43ft 0kts
26-Dec-20 12:50 34.199029 -119.199257 267 43ft 0kts
26-Dec-20 12:51 34.199029 -119.199257 267 43ft 0kts
26-Dec-20 12:52 34.199029 -119.199257 267 43ft 0kts
26-Dec-20 12:53 34.199029 -119.199257 267 43ft 0kts
26-Dec-20 12:54 34.199029 -119.199257 267 43ft 0kts
26-Dec-20 12:55 34.199029 -119.199257 267 43ft 0kts
26-Dec-20 12:56 34.199029 -119.199257 267 43ft 0kts
26-Dec-20 12:58 34.199029 -119.199257 267 43ft 0kts
26-Dec-20 12:59 34.199029 -119.199257 267 43ft 0kts
26-Dec-20 13:00 34.199029 -119.199257 267 43ft 0kts
26-Dec-20 13:01 34.199029 -119.199257 267 43ft 0kts
26-Dec-20 13:02 34.199029 -119.199257 267 43ft 0kts
26-Dec-20 13:03 34.199029 -119.199257 267 43ft 0kts
26-Dec-20 13:04 34.199029 -119.199257 267 43ft 0kts
26-Dec-20 13:05 34.199029 -119.199257 267 43ft 0kts
26-Dec-20 13:06 34.199029 -119.199257 267 43ft 0kts
26-Dec-20 13:07 34.199029 -119.199257 267 43ft 0kts
26-Dec-20 13:08 34.199029 -119.199257 267 43ft 0kts
26-Dec-20 13:09 34.199029 -119.199257 267 43ft 0kts
26-Dec-20 13:10 34.199029 -119.199257 267 43ft 0kts
26-Dec-20 13:11 34.199029 -119.199257 267 43ft 0kts
26-Dec-20 13:12 34.199029 -119.199257 267 43ft 0kts
26-Dec-20 13:13 34.199029 -119.199257 267 43ft 0kts
26-Dec-20 13:13 34.199029 -119.199257 267 43ft 0kts
26-Dec-20 13:14 34.199029 -119.199257 267 43ft 0kts
26-Dec-20 13:16 34.199029 -119.199257 267 43ft 0kts
26-Dec-20 13:17 34.199029 -119.199257 267 43ft 0kts
26-Dec-20 13:17 34.199029 -119.199257 267 43ft 0kts
26-Dec-20 13:18 34.199029 -119.199257 267 43ft 0kts
26-Dec-20 13:19 34.199029 -119.199257 267 43ft 0kts
26-Dec-20 13:20 34.199029 -119.199257 267 43ft 0kts
26-Dec-20 13:22 34.199644 -119.199279 39 43ft 7kts
26-Dec-20 13:22 34.199971 -119.197549 5 43ft 0kts
26-Dec-20 13:23 34.199972 -119.197549 5 43ft 0kts
26-Dec-20 13:24 34.199972 -119.197549 5 43ft 0kts
26-Dec-20 13:25 34.200764 -119.205255 267 186ft 72kts
26-Dec-20 13:26 34.198248 -119.233687 263 1389ft 91kts
26-Dec-20 13:27 34.193734 -119.265594 263 2471ft 97kts
26-Dec-20 13:28 34.190306 -119.297380 301 3532ft 96kts
26-Dec-20 13:29 34.205580 -119.284491 86 4622ft 111kts
26-Dec-20 13:30 34.205521 -119.241900 83 5064ft 151kts
26-Dec-20 13:31 34.206880 -119.188124 83 4684ft 152kts
26-Dec-20 13:32 34.207577 -119.142277 81 5017ft 140kts
26-Dec-20 13:33 34.211821 -119.094900 91 5013ft 141kts
26-Dec-20 13:34 34.213855 -119.047791 95 5014ft 140kts
26-Dec-20 13:35 34.210599 -119.000750 111 5014ft 138kts
26-Dec-20 13:36 34.200709 -118.955386 111 5014ft 138kts
26-Dec-20 13:37 34.190797 -118.910137 111 5014ft 138kts
26-Dec-20 13:38 34.180801 -118.864715 111 5013ft 137kts
26-Dec-20 13:39 34.170723 -118.819185 111 5012ft 137kts
26-Dec-20 13:40 34.160669 -118.774021 111 5011ft 136kts
26-Dec-20 13:41 34.150656 -118.728789 111 5011ft 136kts
26-Dec-20 13:42 34.140614 -118.683138 111 5012ft 138kts
26-Dec-20 13:43 34.130504 -118.637011 111 5014ft 139kts
26-Dec-20 13:44 34.127889 -118.588912 90 5015ft 147kts
26-Dec-20 13:45 34.129060 -118.539544 95 5015ft 146kts
26-Dec-20 13:46 34.128897 -118.489909 96 5014ft 145kts
26-Dec-20 13:47 34.128594 -118.440414 96 5013ft 142kts
26-Dec-20 13:48 34.128235 -118.391848 97 5012ft 140kts
26-Dec-20 13:49 34.127842 -118.344968 97 5011ft 137kts
26-Dec-20 13:50 34.127381 -118.299096 97 5013ft 134kts
26-Dec-20 13:51 34.126795 -118.254140 96 5018ft 131kts
26-Dec-20 13:52 34.123577 -118.209474 87 5027ft 135kts
26-Dec-20 13:53 34.121889 -118.163004 98 5026ft 143kts
26-Dec-20 13:54 34.107899 -118.116575 105 5036ft 148kts
26-Dec-20 13:55 34.093796 -118.069243 107 5041ft 151kts
26-Dec-20 13:56 34.079209 -118.020607 108 5041ft 154kts
26-Dec-20 13:57 34.064263 -117.971016 109 5040ft 156kts
26-Dec-20 13:58 34.048946 -117.920404 109 5039ft 156kts
26-Dec-20 13:59 34.032823 -117.867468 110 5038ft 157kts
26-Dec-20 14:00 34.015755 -117.812002 110 5036ft 157kts
26-Dec-20 14:01 33.982456 -117.783285 183 5033ft 146kts
26-Dec-20 14:02 33.939817 -117.779551 160 4316ft 152kts
26-Dec-20 14:03 33.898334 -117.759835 159 3605ft 150kts
26-Dec-20 14:04 33.854530 -117.753511 191 3009ft 142kts
26-Dec-20 14:05 33.818161 -117.775279 207 3034ft 121kts
26-Dec-20 14:06 33.791457 -117.794332 214 2512ft 96kts
26-Dec-20 14:07 33.765892 -117.811466 205 2049ft 93kts
26-Dec-20 14:08 33.740799 -117.827260 203 1375ft 83kts
26-Dec-20 14:09 33.717504 -117.842569 206 911ft 90kts
26-Dec-20 14:10 33.695817 -117.856123 207 435ft 67kts
26-Dec-20 14:11 33.678826 -117.866852 207 59ft 53kts
26-Dec-20 14:12 33.674401 -117.868466 156 58ft 0kts
26-Dec-20 14:13 33.673586 -117.866843 122 58ft 7kts
26-Dec-20 14:14 33.671947 -117.867308 204 58ft 2kts
26-Dec-20 14:15 33.671943 -117.867310 205 58ft 0kts
26-Dec-20 14:16 33.671943 -117.867310 205 58ft 0kts

Navigation Log

Ident Type
Flight plan parsing failed, navigation log unavailable